Startpagina
METAR-TAF:

METAR-TAF

Vliegvelden :

Luchthaven van Auckland

Auckland, Nieuw-Zeeland

breedte: 37-01S, lengte: 174-48E, hoogte: 7 m

Actueel weer

Dit bericht is 22 minuten geleden gemaakt, om 09:30 UTC
Wind 7 kt uit het oostzuidoosten
Temperatuur 10°C
Vochtigheid 82%
Druk 1023 hPa
Zicht 10 km of meer

METAR: NZAA 190930Z AUTO 12007KT 9999 OVC047/// 10/07 Q1023 NOSIG

Tijdstip: 21:52 (09:52 UTC)

Verwachting

Dit bericht is 4 uur en het 44 minuten geleden gemaakt, om 05:08 UTC
Verwachting geldig van 19 om 06 UTC tot 20 om 06 UTC
Wind 10 kt uit het oosten
Zicht 10 km of meer
Verspreide wolken op 4000 ft
Van 19 om 2100 UTC
Wind 15 kt uit het noordnoordoosten met uitschieters tot 25 kt
Zicht 10 km of meer
Weinig wolken op 3000 ft
Verspreide wolken op 4000 ft
lichte regenbuien
Tijdelijke
van 20 om 04 UTC tot 20 om 06 UTC
Zicht: 6000 m
regen

TAF: NZAA 190508Z 1906/2006 08010KT 9999 SCT040 FM192100 03015G25KT 9999 -SHRA FEW030 SCT040 TEMPO 2004/2006 6000 RA

Waarnemingen en weersverwachtingen van meer dan 4000 vliegvelden (METAR en TAF).

De beschikbare stations zijn de gele en rode punten op de kaart.

Ga met uw muis naar het station om de naam te zien.

Klik dan om waarnemingen en weersverwachtingen te zien.

kaart wijzigen: klik op de groene knoppen met een zwart kruis om in te zoomen, op de groene knop met een streepje om uit te zoomen of op de groene pijlen voor aangrenzende kaarten.


METAR-TAF: